createdAt,value
2019-02-22T00:02:31.958Z,7.60
2019-02-22T00:05:01.097Z,7.60
2019-02-22T00:07:30.456Z,7.40
2019-02-22T00:09:59.968Z,7.30
2019-02-22T00:12:29.541Z,7.20
2019-02-22T00:14:58.341Z,7.10
2019-02-22T00:17:27.410Z,7.10
2019-02-22T00:19:57.021Z,7.00
2019-02-22T00:22:25.917Z,7.00
2019-02-22T00:24:54.713Z,7.00
2019-02-22T00:27:24.422Z,7.00
2019-02-22T00:29:54.187Z,7.10
2019-02-22T00:32:22.978Z,7.10
2019-02-22T00:34:51.785Z,7.00
2019-02-22T00:37:21.197Z,7.00
2019-02-22T00:39:50.696Z,7.00
2019-02-22T00:42:19.484Z,7.00
2019-02-22T00:44:48.290Z,7.00
2019-02-22T00:47:17.378Z,7.10
2019-02-22T00:49:46.457Z,7.10
2019-02-22T00:52:16.068Z,7.20
2019-02-22T00:54:44.873Z,7.20
2019-02-22T00:57:14.769Z,7.10
2019-02-22T00:59:44.285Z,7.10
2019-02-22T01:02:13.397Z,7.10
2019-02-22T01:04:42.789Z,7.10
2019-02-22T01:07:12.085Z,7.20
2019-02-22T01:09:41.509Z,7.20
2019-02-22T01:12:10.321Z,7.30
2019-02-22T01:14:39.784Z,7.40
2019-02-22T01:17:09.191Z,7.50
2019-02-22T01:19:38.297Z,7.50
2019-02-22T01:22:07.429Z,7.60
2019-02-22T01:24:36.222Z,7.60
2019-02-22T01:27:05.397Z,7.60
2019-02-22T01:29:34.191Z,7.60
2019-02-22T01:32:03.825Z,7.60
2019-02-22T01:34:32.963Z,7.60
2019-02-22T01:37:01.762Z,7.50
2019-02-22T01:39:31.073Z,7.50
2019-02-22T01:42:00.153Z,7.40
2019-02-22T01:44:29.559Z,7.40
2019-02-22T01:46:58.354Z,7.30
2019-02-22T01:49:27.556Z,7.30
2019-02-22T01:51:57.073Z,7.20
2019-02-22T01:54:26.130Z,7.10
2019-02-22T01:56:55.081Z,7.10
2019-02-22T01:59:24.243Z,7.00
2019-02-22T02:01:53.642Z,7.00
2019-02-22T02:04:22.741Z,7.00
2019-02-22T02:06:52.238Z,7.00
2019-02-22T02:09:21.754Z,6.90
2019-02-22T02:11:50.653Z,7.00
2019-02-22T02:14:20.650Z,7.00
2019-02-22T02:16:49.774Z,6.90
2019-02-22T02:19:19.397Z,6.90
2019-02-22T02:21:48.477Z,6.90
2019-02-22T02:24:17.268Z,6.90
2019-02-22T02:26:46.469Z,6.90
2019-02-22T02:29:15.547Z,6.90
2019-02-22T02:31:45.194Z,7.00
2019-02-22T02:34:15.318Z,7.00
2019-02-22T02:36:44.386Z,7.10
2019-02-22T02:39:13.453Z,7.10
2019-02-22T02:41:42.335Z,7.10
2019-02-22T02:44:11.529Z,7.10
2019-02-22T02:46:40.653Z,7.10
2019-02-22T02:49:09.750Z,7.10
2019-02-22T02:51:38.597Z,7.20
2019-02-22T02:54:07.728Z,7.20
2019-02-22T02:56:36.535Z,7.20
2019-02-22T02:59:05.828Z,7.30
2019-02-22T03:01:34.875Z,7.30
2019-02-22T03:04:03.697Z,7.30
2019-02-22T03:06:47.595Z,7.30
2019-02-22T03:09:16.809Z,7.40
2019-02-22T03:11:45.938Z,7.40
2019-02-22T03:14:15.034Z,7.40
2019-02-22T03:16:44.147Z,7.40
2019-02-22T03:19:12.946Z,7.40
2019-02-22T03:21:42.058Z,7.40
2019-02-22T03:24:11.226Z,7.40
2019-02-22T03:26:40.305Z,7.50
2019-02-22T03:29:09.120Z,7.50
2019-02-22T03:31:38.551Z,7.50
2019-02-22T03:34:13.486Z,7.50
2019-02-22T03:36:43.056Z,7.50
2019-02-22T03:39:11.863Z,7.50
2019-02-22T03:41:41.231Z,7.50
2019-02-22T03:44:10.290Z,7.50
2019-02-22T03:46:39.731Z,7.50
2019-02-22T03:49:08.850Z,7.50
2019-02-22T03:51:38.548Z,7.50
2019-02-22T03:54:07.935Z,7.50
2019-02-22T03:56:37.174Z,7.50
2019-02-22T03:59:06.386Z,7.50
2019-02-22T04:01:35.938Z,7.50
2019-02-22T04:04:04.811Z,7.50
2019-02-22T04:06:34.001Z,7.50
2019-02-22T04:09:04.482Z,7.50
2019-02-22T04:11:44.985Z,7.50
2019-02-22T04:14:04.182Z,7.50
2019-02-22T04:16:33.610Z,7.40
2019-02-22T04:19:03.124Z,7.40
2019-02-22T04:21:32.303Z,7.40
2019-02-22T04:24:01.805Z,7.40
2019-02-22T04:26:31.200Z,7.50
2019-02-22T04:29:00.634Z,7.40
2019-02-22T04:31:29.725Z,7.40
2019-02-22T04:33:58.820Z,7.50
2019-02-22T04:36:27.614Z,7.50
2019-02-22T04:38:56.797Z,7.50
2019-02-22T04:41:25.985Z,7.50
2019-02-22T04:43:54.799Z,7.50
2019-02-22T04:46:23.603Z,7.60
2019-02-22T04:48:52.654Z,7.60
2019-02-22T04:51:21.441Z,7.60
2019-02-22T04:53:50.555Z,7.50
2019-02-22T04:56:19.710Z,7.50
2019-02-22T04:58:49.138Z,7.60
2019-02-22T05:01:18.053Z,7.50
2019-02-22T05:03:47.257Z,7.50
2019-02-22T05:06:16.045Z,7.60
2019-02-22T05:08:45.769Z,7.60
2019-02-22T05:11:15.542Z,7.60
2019-02-22T05:13:44.662Z,7.60
2019-02-22T05:16:13.793Z,7.70
2019-02-22T05:18:42.930Z,7.70
2019-02-22T05:21:12.594Z,7.70
2019-02-22T05:23:42.301Z,7.70
2019-02-22T05:26:11.660Z,7.60
2019-02-22T05:28:41.067Z,7.60
2019-02-22T05:31:10.169Z,7.60
2019-02-22T05:33:39.585Z,7.60
2019-02-22T05:36:08.523Z,7.60
2019-02-22T05:38:37.344Z,7.60
2019-02-22T05:41:06.204Z,7.50
2019-02-22T05:43:35.644Z,7.50
2019-02-22T05:46:04.441Z,7.50
2019-02-22T05:48:33.523Z,7.60
2019-02-22T05:51:02.337Z,7.60
2019-02-22T05:53:31.717Z,7.60
2019-02-22T05:56:00.816Z,7.60
2019-02-22T05:58:30.261Z,7.60
2019-02-22T06:00:59.411Z,7.60
2019-02-22T06:03:28.812Z,7.60
2019-02-22T06:05:57.917Z,7.60
2019-02-22T06:08:27.321Z,7.60
2019-02-22T06:10:56.451Z,7.60
2019-02-22T06:13:25.985Z,7.60
2019-02-22T06:15:55.027Z,7.70
2019-02-22T06:18:24.354Z,7.70
2019-02-22T06:20:53.463Z,7.70
2019-02-22T06:23:22.915Z,7.70
2019-02-22T06:25:52.023Z,7.70
2019-02-22T06:28:21.129Z,7.70
2019-02-22T06:30:49.921Z,7.70
2019-02-22T06:33:18.992Z,7.70
2019-02-22T06:35:47.792Z,7.70
2019-02-22T06:38:16.687Z,7.70
2019-02-22T06:40:48.163Z,7.70
2019-02-22T06:43:17.005Z,7.70
2019-02-22T06:45:46.517Z,7.70
2019-02-22T06:48:15.434Z,7.70
2019-02-22T06:50:44.717Z,7.60
2019-02-22T06:53:13.620Z,7.70
2019-02-22T06:55:42.429Z,7.60
2019-02-22T06:58:11.863Z,7.60
2019-02-22T07:00:41.890Z,7.60
2019-02-22T07:03:10.757Z,7.70
2019-02-22T07:05:39.563Z,7.60
2019-02-22T07:08:08.710Z,7.60
2019-02-22T07:11:15.574Z,7.60
2019-02-22T07:13:44.649Z,7.60
2019-02-22T07:16:14.019Z,7.50
2019-02-22T07:18:43.485Z,7.50
2019-02-22T07:21:12.869Z,7.50
2019-02-22T07:23:42.025Z,7.50
2019-02-22T07:26:11.379Z,7.50
2019-02-22T07:28:40.573Z,7.50
2019-02-22T07:31:09.382Z,7.60
2019-02-22T07:33:38.460Z,7.50
2019-02-22T07:36:07.337Z,7.60
2019-02-22T07:38:36.456Z,7.60
2019-02-22T07:41:05.322Z,7.60
2019-02-22T07:43:34.113Z,7.60
2019-02-22T07:46:03.246Z,7.60
2019-02-22T07:48:32.634Z,7.70
2019-02-22T07:51:02.768Z,7.70
2019-02-22T07:53:31.918Z,7.70
2019-02-22T07:56:01.041Z,7.70
2019-02-22T07:58:30.665Z,7.70
2019-02-22T08:00:59.671Z,7.70
2019-02-22T08:03:29.346Z,7.80
2019-02-22T08:05:58.474Z,7.80
2019-02-22T08:08:27.885Z,7.80
2019-02-22T08:10:56.941Z,7.80
2019-02-22T08:13:26.083Z,7.80
2019-02-22T08:15:55.561Z,7.80
2019-02-22T08:18:24.946Z,7.80
2019-02-22T08:20:54.057Z,7.90
2019-02-22T08:23:23.454Z,7.90
2019-02-22T08:25:53.280Z,7.90
2019-02-22T08:28:22.664Z,7.90
2019-02-22T08:30:52.110Z,7.90
2019-02-22T08:33:21.466Z,7.90
2019-02-22T08:35:51.097Z,7.90
2019-02-22T08:38:20.509Z,7.90
2019-02-22T08:40:49.555Z,8.00
2019-02-22T08:43:18.675Z,8.00
2019-02-22T08:45:47.469Z,8.00
2019-02-22T08:48:16.663Z,8.00
2019-02-22T08:50:46.372Z,8.00
2019-02-22T08:53:15.548Z,8.10
2019-02-22T08:55:44.979Z,8.00
2019-02-22T08:58:14.057Z,8.00
2019-02-22T09:00:43.281Z,8.00
2019-02-22T09:03:12.670Z,8.00
2019-02-22T09:05:42.064Z,8.00
2019-02-22T09:08:11.497Z,8.00
2019-02-22T09:10:40.882Z,8.10
2019-02-22T09:13:10.284Z,8.10
2019-02-22T09:15:39.379Z,8.20
2019-02-22T09:18:08.529Z,8.30
2019-02-22T09:20:37.679Z,8.30
2019-02-22T09:23:07.613Z,8.40
2019-02-22T09:25:36.645Z,8.50
2019-02-22T09:28:05.458Z,8.50
2019-02-22T09:30:34.245Z,8.50
2019-02-22T09:33:03.741Z,8.40
2019-02-22T09:35:34.887Z,8.40
2019-02-22T09:38:04.285Z,8.40
2019-02-22T09:40:33.425Z,8.40
2019-02-22T09:43:02.293Z,8.40
2019-02-22T09:45:31.398Z,8.40
2019-02-22T09:48:01.109Z,8.40
2019-02-22T09:50:30.803Z,8.40
2019-02-22T09:52:59.909Z,8.50
2019-02-22T09:55:28.706Z,8.60
2019-02-22T09:57:57.987Z,8.50
2019-02-22T10:00:27.093Z,8.60
2019-02-22T10:02:55.896Z,8.60
2019-02-22T10:05:25.540Z,8.60
2019-02-22T10:07:54.697Z,8.60
2019-02-22T10:10:23.494Z,8.60
2019-02-22T10:12:52.367Z,8.70
2019-02-22T10:15:21.189Z,8.70
2019-02-22T10:17:50.577Z,8.80
2019-02-22T10:20:19.684Z,8.80
2019-02-22T10:22:48.760Z,9.00
2019-02-22T10:25:17.931Z,9.30
2019-02-22T10:27:47.051Z,9.60
2019-02-22T10:30:15.847Z,9.90
2019-02-22T10:32:45.259Z,10.20
2019-02-22T10:35:14.578Z,10.60
2019-02-22T10:37:45.013Z,10.70
2019-02-22T10:40:14.080Z,10.60
2019-02-22T10:42:43.470Z,10.50
2019-02-22T10:45:12.577Z,10.30
2019-02-22T10:47:41.653Z,10.20
2019-02-22T10:50:10.625Z,9.90
2019-02-22T10:52:40.065Z,9.70
2019-02-22T10:55:09.503Z,9.70
2019-02-22T10:57:38.297Z,9.80
2019-02-22T11:00:09.694Z,9.90
2019-02-22T11:02:38.921Z,10.00
2019-02-22T11:05:08.009Z,10.20
2019-02-22T11:07:37.481Z,10.30
2019-02-22T11:10:08.417Z,10.40
2019-02-22T11:12:37.713Z,10.40
2019-02-22T11:15:07.904Z,10.30
2019-02-22T11:17:36.702Z,10.30
2019-02-22T11:20:06.567Z,10.60
2019-02-22T11:22:35.683Z,10.40
2019-02-22T11:25:06.069Z,10.80
2019-02-22T11:27:35.511Z,11.10
2019-02-22T11:30:04.745Z,11.00
2019-02-22T11:32:34.115Z,11.00
2019-02-22T11:35:03.193Z,11.10
2019-02-22T11:37:32.285Z,11.00
2019-02-22T11:40:01.477Z,11.30
2019-02-22T11:42:31.112Z,11.20
2019-02-22T11:44:59.901Z,11.10
2019-02-22T11:47:29.123Z,11.20
2019-02-22T11:49:58.210Z,11.30
2019-02-22T11:52:27.106Z,11.20
2019-02-22T11:54:56.373Z,11.00
2019-02-22T11:57:25.243Z,11.10
2019-02-22T11:59:54.850Z,11.00
2019-02-22T12:02:23.671Z,11.00
2019-02-22T12:04:53.264Z,11.10
2019-02-22T12:07:22.473Z,11.00
2019-02-22T12:09:51.774Z,11.00
2019-02-22T12:12:21.480Z,11.00
2019-02-22T12:14:52.050Z,11.00
2019-02-22T12:17:21.850Z,11.20
2019-02-22T12:19:50.897Z,11.10
2019-02-22T12:22:19.934Z,10.90
2019-02-22T12:24:49.637Z,10.90
2019-02-22T12:27:18.437Z,10.80
2019-02-22T12:29:48.160Z,10.70
2019-02-22T12:32:17.326Z,10.70
2019-02-22T12:34:46.434Z,10.50
2019-02-22T12:37:15.813Z,10.50
2019-02-22T12:39:44.733Z,10.80
2019-02-22T12:42:13.782Z,10.90
2019-02-22T12:44:42.913Z,10.90
2019-02-22T12:47:11.767Z,10.90
2019-02-22T12:49:41.117Z,10.70
2019-02-22T12:52:10.643Z,10.80
2019-02-22T12:54:39.445Z,10.60
2019-02-22T12:57:08.319Z,10.40
2019-02-22T12:59:37.814Z,10.30
2019-02-22T13:02:07.330Z,10.20
2019-02-22T13:04:36.504Z,10.20
2019-02-22T13:07:05.782Z,10.00
2019-02-22T13:09:36.979Z,10.00
2019-02-22T13:12:13.587Z,10.10
2019-02-22T13:14:36.043Z,10.10
2019-02-22T13:17:05.260Z,10.10
2019-02-22T13:19:34.657Z,10.10
2019-02-22T13:22:04.162Z,10.10
2019-02-22T13:24:32.954Z,10.10
2019-02-22T13:27:01.762Z,10.10
2019-02-22T13:29:30.970Z,10.10
2019-02-22T13:32:00.125Z,10.20
2019-02-22T13:34:29.505Z,10.10
2019-02-22T13:36:58.650Z,10.20
2019-02-22T13:39:59.059Z,10.20
2019-02-22T13:42:28.202Z,10.20
2019-02-22T13:44:57.842Z,10.10
2019-02-22T13:47:27.186Z,10.10
2019-02-22T13:49:55.985Z,10.40
2019-02-22T13:52:25.051Z,10.60
2019-02-22T13:54:53.917Z,10.40
2019-02-22T13:57:23.353Z,10.60
2019-02-22T13:59:52.525Z,10.50
2019-02-22T14:02:21.330Z,10.70
2019-02-22T14:04:51.086Z,10.60
2019-02-22T14:07:20.693Z,10.30
2019-02-22T14:09:49.483Z,10.10
2019-02-22T14:12:18.309Z,10.10
2019-02-22T14:14:47.725Z,10.30
2019-02-22T14:17:16.869Z,10.50
2019-02-22T14:19:45.909Z,10.50
2019-02-22T14:22:15.250Z,10.80
2019-02-22T14:24:44.533Z,10.90
2019-02-22T14:27:13.410Z,10.90
2019-02-22T14:29:42.612Z,10.60
2019-02-22T14:32:11.817Z,10.70
2019-02-22T14:34:41.881Z,10.60
2019-02-22T14:37:10.710Z,10.40
2019-02-22T14:39:39.546Z,10.30
2019-02-22T14:42:08.973Z,10.30
2019-02-22T14:44:38.117Z,10.30
2019-02-22T14:47:07.091Z,10.20
2019-02-22T14:49:36.181Z,10.00
2019-02-22T14:52:05.414Z,9.90
2019-02-22T14:54:34.213Z,9.80
2019-02-22T14:57:03.018Z,10.00
2019-02-22T14:59:32.377Z,10.00
2019-02-22T15:02:01.260Z,10.20
2019-02-22T15:04:30.489Z,10.40
2019-02-22T15:07:00.108Z,10.60
2019-02-22T15:09:28.911Z,10.80
2019-02-22T15:11:58.139Z,10.80
2019-02-22T15:14:27.463Z,10.80
2019-02-22T15:17:01.754Z,10.80
2019-02-22T15:19:31.194Z,11.00
2019-02-22T15:22:01.222Z,10.80
2019-02-22T15:24:32.953Z,10.60
2019-02-22T15:27:01.442Z,10.60
2019-02-22T15:29:30.268Z,10.50
2019-02-22T15:31:59.649Z,10.30
2019-02-22T15:34:28.449Z,10.00
2019-02-22T15:36:57.511Z,10.00
2019-02-22T15:39:26.721Z,9.80
2019-02-22T15:41:56.123Z,9.80
2019-02-22T15:44:24.934Z,9.70
2019-02-22T15:46:53.993Z,9.60
2019-02-22T15:49:22.872Z,9.50
2019-02-22T15:51:52.249Z,9.30
2019-02-22T15:54:21.649Z,9.30
2019-02-22T15:56:51.313Z,9.20
2019-02-22T15:59:21.245Z,9.10
2019-02-22T16:01:55.572Z,9.10
2019-02-22T16:04:28.740Z,9.00
2019-02-22T16:06:57.858Z,8.90
2019-02-22T16:09:29.281Z,8.90
2019-02-22T16:11:58.929Z,8.80
2019-02-22T16:14:27.726Z,8.90
2019-02-22T16:16:56.517Z,8.80
2019-02-22T16:19:25.359Z,8.70
2019-02-22T16:21:54.896Z,8.70
2019-02-22T16:24:23.968Z,8.70
2019-02-22T16:27:02.083Z,8.70
2019-02-22T16:29:35.158Z,8.60
2019-02-22T16:32:05.602Z,8.60
2019-02-22T16:34:43.127Z,8.50
2019-02-22T16:37:05.513Z,8.40
2019-02-22T16:39:34.869Z,8.30
2019-02-22T16:42:03.911Z,8.30
2019-02-22T16:44:33.013Z,8.30
2019-02-22T16:47:02.118Z,8.20
2019-02-22T16:49:30.977Z,8.10
2019-02-22T16:52:00.713Z,8.10
2019-02-22T16:54:29.577Z,8.00
2019-02-22T16:56:59.273Z,7.80
2019-02-22T16:59:28.402Z,7.80
2019-02-22T17:01:57.276Z,7.70
2019-02-22T17:04:26.811Z,7.70
2019-02-22T17:06:56.529Z,7.60
2019-02-22T17:09:25.330Z,7.50
2019-02-22T17:11:54.405Z,7.40
2019-02-22T17:14:23.498Z,7.30
2019-02-22T17:16:52.530Z,7.30
2019-02-22T17:19:21.588Z,7.10
2019-02-22T17:21:50.704Z,7.00
2019-02-22T17:24:19.592Z,6.70
2019-02-22T17:26:48.665Z,6.50
2019-02-22T17:29:17.573Z,6.40
2019-02-22T17:31:46.654Z,6.20
2019-02-22T17:34:15.761Z,6.10
2019-02-22T17:36:44.639Z,6.00
2019-02-22T17:39:13.754Z,5.90
2019-02-22T17:41:43.143Z,5.70
2019-02-22T17:44:12.646Z,5.60
2019-02-22T17:46:41.996Z,5.50
2019-02-22T17:49:11.461Z,5.40
2019-02-22T17:51:40.565Z,5.30
2019-02-22T17:54:10.059Z,5.30
2019-02-22T17:56:39.152Z,5.20
2019-02-22T17:59:08.218Z,5.20
2019-02-22T18:01:37.009Z,5.10
2019-02-22T18:04:05.851Z,5.10
2019-02-22T18:06:35.169Z,5.00
2019-02-22T18:09:05.341Z,4.90
2019-02-22T18:11:34.662Z,4.90
2019-02-22T18:14:03.622Z,4.90
2019-02-22T18:16:33.457Z,4.90
2019-02-22T18:19:02.520Z,4.90
2019-02-22T18:21:31.657Z,4.90
2019-02-22T18:24:00.535Z,4.90
2019-02-22T18:26:29.625Z,4.80
2019-02-22T18:28:59.755Z,4.60
2019-02-22T18:31:29.444Z,4.50
2019-02-22T18:33:58.607Z,4.40
2019-02-22T18:36:27.808Z,4.40
2019-02-22T18:38:56.969Z,4.40
2019-02-22T18:41:26.310Z,4.20
2019-02-22T18:43:55.133Z,4.20
2019-02-22T18:46:24.553Z,4.20
2019-02-22T18:48:53.434Z,4.20
2019-02-22T18:51:22.228Z,4.30
2019-02-22T18:53:51.335Z,4.20
2019-02-22T18:56:20.867Z,4.20
2019-02-22T18:58:50.041Z,4.10
2019-02-22T19:01:19.100Z,4.00
2019-02-22T19:03:48.357Z,4.00
2019-02-22T19:06:17.425Z,3.80
2019-02-22T19:08:46.825Z,3.80
2019-02-22T19:11:15.715Z,3.70
2019-02-22T19:13:44.525Z,3.60
2019-02-22T19:16:13.426Z,3.50
2019-02-22T19:18:42.807Z,3.50
2019-02-22T19:21:12.108Z,3.40
2019-02-22T19:23:41.297Z,3.40
2019-02-22T19:26:10.612Z,3.50
2019-02-22T19:28:39.421Z,3.50
2019-02-22T19:31:08.537Z,3.60
2019-02-22T19:33:38.025Z,3.60
2019-02-22T19:36:07.073Z,3.60
2019-02-22T19:38:36.317Z,3.60
2019-02-22T19:41:05.411Z,3.60
2019-02-22T19:43:34.222Z,3.70
2019-02-22T19:46:03.342Z,3.70
2019-02-22T19:48:32.727Z,3.70
2019-02-22T19:51:01.977Z,3.60
2019-02-22T19:53:30.809Z,3.50
2019-02-22T19:55:59.692Z,3.40
2019-02-22T19:58:29.174Z,3.40
2019-02-22T20:00:58.217Z,3.10
2019-02-22T20:03:27.254Z,3.00
2019-02-22T20:05:56.349Z,3.10
2019-02-22T20:08:25.444Z,3.20
2019-02-22T20:10:54.245Z,3.10
2019-02-22T20:13:23.782Z,3.10
2019-02-22T20:15:52.573Z,3.20
2019-02-22T20:18:21.826Z,3.20
2019-02-22T20:20:50.641Z,3.30
2019-02-22T20:23:20.206Z,3.50
2019-02-22T20:25:49.483Z,3.50
2019-02-22T20:28:18.715Z,3.40
2019-02-22T20:30:48.030Z,3.30
2019-02-22T20:33:17.433Z,3.10
2019-02-22T20:35:46.726Z,2.90
2019-02-22T20:38:15.867Z,2.70
2019-02-22T20:40:44.680Z,2.50
2019-02-22T20:43:13.856Z,2.20
2019-02-22T20:45:43.166Z,2.40
2019-02-22T20:48:11.971Z,2.40
2019-02-22T20:50:40.805Z,2.40
2019-02-22T20:53:10.715Z,2.20
2019-02-22T20:55:39.784Z,2.10
2019-02-22T20:58:09.009Z,1.90
2019-02-22T21:00:38.265Z,1.90
2019-02-22T21:03:07.398Z,1.90
2019-02-22T21:05:36.593Z,1.80
2019-02-22T21:08:06.345Z,1.80
2019-02-22T21:10:37.932Z,1.90
2019-02-22T21:13:07.482Z,2.00
2019-02-22T21:15:36.578Z,2.00
2019-02-22T21:18:15.636Z,2.10
2019-02-22T21:20:36.003Z,2.40
2019-02-22T21:23:04.890Z,2.30
2019-02-22T21:25:34.386Z,2.40
2019-02-22T21:28:03.493Z,2.60
2019-02-22T21:30:32.604Z,2.60
2019-02-22T21:33:01.969Z,2.70
2019-02-22T21:35:31.109Z,2.50
2019-02-22T21:38:00.194Z,2.90
2019-02-22T21:40:29.007Z,2.90
2019-02-22T21:42:58.424Z,2.90
2019-02-22T21:45:27.692Z,3.20
2019-02-22T21:47:56.838Z,3.60
2019-02-22T21:50:26.107Z,3.80
2019-02-22T21:52:55.200Z,3.70
2019-02-22T21:55:24.034Z,3.70
2019-02-22T21:57:53.488Z,3.70
2019-02-22T22:00:22.775Z,3.60
2019-02-22T22:02:51.581Z,3.50
2019-02-22T22:05:20.972Z,3.10
2019-02-22T22:07:50.416Z,3.10
2019-02-22T22:10:19.528Z,3.10
2019-02-22T22:12:48.494Z,3.10
2019-02-22T22:15:18.179Z,3.10
2019-02-22T22:17:47.827Z,3.10
2019-02-22T22:20:16.789Z,3.10
2019-02-22T22:22:46.071Z,3.20
2019-02-22T22:25:14.961Z,3.00
2019-02-22T22:27:44.121Z,3.00
2019-02-22T22:30:13.098Z,3.00
2019-02-22T22:32:42.712Z,3.10
2019-02-22T22:35:11.770Z,3.10
2019-02-22T22:37:41.487Z,2.90
2019-02-22T22:40:10.751Z,2.80
2019-02-22T22:42:39.673Z,2.80
2019-02-22T22:45:09.633Z,3.10
2019-02-22T22:47:38.454Z,3.40
2019-02-22T22:50:09.344Z,3.80
2019-02-22T22:52:38.485Z,4.40
2019-02-22T22:55:07.191Z,4.60
2019-02-22T22:57:36.287Z,4.70
2019-02-22T23:00:14.012Z,5.00
2019-02-22T23:02:43.174Z,5.10
2019-02-22T23:05:12.353Z,5.30
2019-02-22T23:07:42.024Z,5.40
2019-02-22T23:10:11.594Z,5.50
2019-02-22T23:12:40.793Z,5.40
2019-02-22T23:15:09.985Z,5.40
2019-02-22T23:17:38.819Z,5.30
2019-02-22T23:20:08.040Z,5.30
2019-02-22T23:22:36.913Z,5.20
2019-02-22T23:25:06.117Z,5.20
2019-02-22T23:27:35.253Z,5.40
2019-02-22T23:30:04.878Z,5.40
2019-02-22T23:32:33.677Z,5.40
2019-02-22T23:35:02.790Z,5.40
2019-02-22T23:37:31.577Z,5.30
2019-02-22T23:40:01.109Z,5.30
2019-02-22T23:42:30.563Z,5.30
2019-02-22T23:45:00.324Z,5.20
2019-02-22T23:47:29.577Z,5.10
2019-02-22T23:49:58.669Z,5.00
2019-02-22T23:52:27.752Z,4.90
2019-02-22T23:54:56.863Z,4.80
2019-02-22T23:57:26.877Z,4.80
2019-02-22T23:59:56.365Z,4.80
